Time;durP1;ratioP1;P1;durP2;ratioP2;P2;SDS_P1;SDS_P2;PMS_P1;PMS_P2;Temp;Humidity;BMP_temperature;BMP_pressure;BME280_temperature;BME280_humidity;BME280_pressure;Samples;Min_cycle;Max_cycle;Signal;HPM_P1;HPM_P2
2022/07/27 00:00:23;;;;;;;11.22;7.25;;;26.60;99.90;;;;;;1878935;73;21532;-73
2022/07/27 00:02:55;;;;;;;11.03;7.08;;;26.70;99.90;;;;;;1896274;73;21221;-72
2022/07/27 00:05:26;;;;;;;12.00;7.55;;;26.70;99.90;;;;;;1908531;73;21084;-72
2022/07/27 00:07:56;;;;;;;11.68;8.43;;;26.70;99.90;;;;;;1884006;73;21175;-72
2022/07/27 00:10:27;;;;;;;10.28;8.03;;;26.70;99.90;;;;;;1902200;73;21221;-73
2022/07/27 00:12:58;;;;;;;12.88;7.42;;;26.70;99.90;;;;;;1902768;74;21107;-72
2022/07/27 00:15:29;;;;;;;10.28;7.55;;;26.80;99.90;;;;;;1900193;74;21239;-72
2022/07/27 00:18:00;;;;;;;7.05;5.92;;;26.80;99.90;;;;;;1911259;73;21092;-71
2022/07/27 00:20:32;;;;;;;7.25;5.42;;;26.80;99.90;;;;;;1903454;74;21130;-72
2022/07/27 00:23:03;;;;;;;10.35;6.05;;;26.90;99.90;;;;;;1908139;73;21199;-72
2022/07/27 00:25:34;;;;;;;10.38;6.53;;;26.80;99.90;;;;;;1886917;74;21120;-71
2022/07/27 00:28:06;;;;;;;8.63;5.45;;;26.90;99.90;;;;;;1908871;73;21207;-72
2022/07/27 00:30:37;;;;;;;9.63;6.25;;;26.90;99.90;;;;;;1889459;74;21652;-71
2022/07/27 00:33:08;;;;;;;7.55;5.30;;;26.90;99.90;;;;;;1899757;73;21170;-71
2022/07/27 00:35:41;;;;;;;6.97;5.45;;;27.00;99.90;;;;;;1896650;73;21136;-72
2022/07/27 00:38:11;;;;;;;8.33;5.35;;;27.10;99.90;;;;;;1902252;74;21261;-70
2022/07/27 00:40:42;;;;;;;10.63;5.35;;;27.10;99.90;;;;;;1895092;73;21118;-71
2022/07/27 00:43:14;;;;;;;8.30;5.00;;;27.20;99.90;;;;;;1916135;73;21919;-70
2022/07/27 00:45:45;;;;;;;8.63;5.17;;;27.20;99.90;;;;;;1904460;73;21697;-71
2022/07/27 00:48:15;;;;;;;6.33;4.40;;;27.20;99.90;;;;;;1898136;73;21121;-70
2022/07/27 00:50:47;;;;;;;9.48;5.37;;;27.30;99.90;;;;;;1896616;74;21124;-70
2022/07/27 00:53:18;;;;;;;8.15;4.62;;;27.30;99.90;;;;;;1906209;74;21677;-71
2022/07/27 00:55:49;;;;;;;8.00;5.37;;;27.30;99.90;;;;;;1832448;75;21705;-71
2022/07/27 00:58:21;;;;;;;9.35;4.60;;;27.30;99.90;;;;;;1884596;74;21579;-71
2022/07/27 01:00:52;;;;;;;8.10;5.12;;;27.40;99.90;;;;;;1878006;73;21497;-71
2022/07/27 01:03:23;;;;;;;6.87;4.70;;;27.50;99.90;;;;;;1889741;73;21150;-71
2022/07/27 01:05:55;;;;;;;9.23;5.47;;;27.50;99.90;;;;;;1914142;73;21245;-70
2022/07/27 01:08:27;;;;;;;7.37;5.08;;;27.50;99.90;;;;;;1898375;73;21211;-71
2022/07/27 01:10:59;;;;;;;11.25;5.30;;;27.60;99.90;;;;;;1903987;73;21155;-71
2022/07/27 01:13:31;;;;;;;13.78;6.22;;;27.60;99.90;;;;;;1903202;73;21098;-70
2022/07/27 01:16:04;;;;;;;7.08;4.87;;;27.80;99.90;;;;;;1901633;73;21188;-71
2022/07/27 01:18:37;;;;;;;12.60;5.70;;;27.70;99.90;;;;;;1878237;74;21131;-70
2022/07/27 01:21:09;;;;;;;9.88;5.00;;;27.80;99.90;;;;;;1872625;74;21167;-71
2022/07/27 01:23:40;;;;;;;9.05;5.35;;;28.00;99.90;;;;;;1887280;73;21684;-72
2022/07/27 01:26:11;;;;;;;7.87;5.05;;;27.90;99.90;;;;;;1890237;73;21162;-70
2022/07/27 01:28:44;;;;;;;6.87;4.67;;;28.00;99.90;;;;;;1904758;74;21153;-81
2022/07/27 01:31:15;;;;;;;9.65;5.50;;;28.10;99.90;;;;;;1900449;73;21162;-81
2022/07/27 01:33:48;;;;;;;14.05;5.28;;;28.20;99.90;;;;;;1898634;73;21143;-81
2022/07/27 01:36:19;;;;;;;6.70;4.25;;;28.20;99.90;;;;;;1891947;73;21240;-81
2022/07/27 01:38:50;;;;;;;8.63;4.87;;;28.40;99.90;;;;;;1901422;74;21374;-80
2022/07/27 01:41:21;;;;;;;9.20;4.58;;;28.60;99.90;;;;;;1896241;74;21718;-81
2022/07/27 01:43:52;;;;;;;7.08;4.58;;;28.70;99.70;;;;;;1874833;73;21187;-81
2022/07/27 01:46:25;;;;;;;6.80;5.03;;;28.60;99.40;;;;;;1914309;73;21155;-80
2022/07/27 01:48:56;;;;;;;8.60;4.58;;;28.70;99.40;;;;;;1884941;74;21222;-83
2022/07/27 01:51:29;;;;;;;6.97;4.62;;;28.80;99.40;;;;;;1888088;74;21257;-82
2022/07/27 01:54:01;;;;;;;5.60;4.10;;;28.70;98.90;;;;;;1887289;74;21274;-82
2022/07/27 01:56:32;;;;;;;7.87;4.70;;;28.80;99.10;;;;;;1887812;74;21235;-81
2022/07/27 01:59:03;;;;;;;8.00;4.97;;;28.90;99.00;;;;;;1881436;73;21640;-81
2022/07/27 02:01:35;;;;;;;7.92;4.40;;;29.20;99.00;;;;;;1877555;74;21158;-80
2022/07/27 02:04:06;;;;;;;6.33;4.80;;;29.20;98.60;;;;;;1880793;74;21177;-81
2022/07/27 02:06:38;;;;;;;9.98;5.00;;;29.30;98.80;;;;;;1836016;75;21164;-81
2022/07/27 02:09:08;;;;;;;7.80;5.12;;;29.20;98.70;;;;;;1896330;73;21214;-81
2022/07/27 02:14:12;;;;;;;6.67;4.90;;;29.30;98.30;;;;;;1879426;73;21116;-81
2022/07/27 02:16:43;;;;;;;7.78;5.33;;;29.40;98.30;;;;;;1897766;74;21143;-81
2022/07/27 02:19:14;;;;;;;8.13;5.40;;;29.40;98.00;;;;;;1908732;74;21124;-79
2022/07/27 02:21:46;;;;;;;6.40;4.47;;;29.50;98.10;;;;;;1885732;74;21733;-80
2022/07/27 02:24:17;;;;;;;9.75;5.10;;;29.40;98.00;;;;;;1846306;75;21187;-81
2022/07/27 02:26:48;;;;;;;9.10;5.28;;;29.50;98.00;;;;;;1903905;74;21636;-81
2022/07/27 02:29:20;;;;;;;6.97;5.03;;;29.50;98.10;;;;;;1878381;74;21607;-80
2022/07/27 02:31:51;;;;;;;7.50;5.20;;;29.60;98.00;;;;;;1885158;74;21171;-82
2022/07/27 02:34:22;;;;;;;7.10;5.50;;;29.60;97.90;;;;;;1911451;74;21760;-81
2022/07/27 02:36:53;;;;;;;7.40;5.55;;;29.80;97.90;;;;;;1910749;73;21186;-79
2022/07/27 02:39:24;;;;;;;6.92;4.90;;;29.90;98.10;;;;;;1910979;73;21128;-81
2022/07/27 02:41:55;;;;;;;7.72;4.85;;;30.10;98.00;;;;;;1915105;74;21136;-81
2022/07/27 02:44:26;;;;;;;6.53;4.90;;;30.20;97.60;;;;;;1869633;73;21162;-80
2022/07/27 02:46:58;;;;;;;10.00;4.90;;;30.20;97.20;;;;;;1884294;73;21139;-80
2022/07/27 02:49:29;;;;;;;7.45;5.22;;;30.20;97.10;;;;;;1879458;73;21112;-78
2022/07/27 02:52:00;;;;;;;5.92;5.05;;;30.30;97.30;;;;;;1899897;74;21157;-79
2022/07/27 02:54:31;;;;;;;7.08;5.28;;;30.30;96.70;;;;;;1888641;74;21517;-79
2022/07/27 02:57:03;;;;;;;5.42;4.90;;;30.40;96.50;;;;;;1883347;74;21072;-81
2022/07/27 02:59:34;;;;;;;7.42;5.00;;;30.30;96.50;;;;;;1883945;73;21245;-79
2022/07/27 03:02:07;;;;;;;9.75;5.42;;;30.50;96.30;;;;;;1894684;74;21199;-81
2022/07/27 03:04:38;;;;;;;8.93;5.58;;;30.60;96.20;;;;;;1896505;73;21077;-81
2022/07/27 03:07:09;;;;;;;8.48;5.05;;;30.60;96.00;;;;;;1874143;73;21682;-81
2022/07/27 03:09:40;;;;;;;6.30;5.12;;;30.60;96.10;;;;;;1883165;74;21800;-80
2022/07/27 03:12:15;;;;;;;9.20;6.00;;;30.70;95.90;;;;;;1869855;73;21532;-80
2022/07/27 03:14:46;;;;;;;8.03;5.50;;;30.60;96.10;;;;;;1900630;73;21272;-80
2022/07/27 03:17:17;;;;;;;6.25;4.67;;;30.70;96.30;;;;;;1892169;73;21575;-80
2022/07/27 03:19:48;;;;;;;8.50;4.90;;;30.70;96.30;;;;;;1873278;74;21104;-81
2022/07/27 03:22:19;;;;;;;8.40;5.25;;;30.80;96.00;;;;;;1886352;74;21579;-81
2022/07/27 03:24:50;;;;;;;11.40;5.47;;;30.90;96.10;;;;;;1879722;74;21170;-80
2022/07/27 03:27:21;;;;;;;6.35;5.17;;;31.00;95.50;;;;;;1896771;73;21750;-83
2022/07/27 03:29:56;;;;;;;6.87;4.95;;;31.10;95.50;;;;;;1871845;74;21170;-81
2022/07/27 03:32:26;;;;;;;9.10;5.10;;;31.20;95.40;;;;;;1873628;74;21185;-81
2022/07/27 03:34:57;;;;;;;8.85;5.08;;;31.30;95.00;;;;;;1903121;73;21598;-81
2022/07/27 03:37:32;;;;;;;9.75;4.80;;;31.50;94.60;;;;;;1893447;74;21185;-82
2022/07/27 03:40:05;;;;;;;8.50;4.95;;;31.50;94.70;;;;;;1878721;74;21723;-83
2022/07/27 03:42:51;;;;;;;8.53;5.15;;;31.70;95.10;;;;;;1885178;74;21132;-81
2022/07/27 03:48:49;;;;;;;8.65;5.10;;;31.80;93.80;;;;;;1863103;74;21251;-80
2022/07/27 03:51:11;;;;;;;8.80;5.03;;;31.90;93.60;;;;;;1851923;75;21295;-81
2022/07/27 03:53:43;;;;;;;7.28;5.08;;;32.00;93.90;;;;;;1867809;75;21165;-81
2022/07/27 03:56:20;;;;;;;7.83;5.08;;;32.00;93.10;;;;;;1865479;73;21198;-79
2022/07/27 03:58:53;;;;;;;5.72;4.55;;;32.10;92.70;;;;;;1863603;75;21194;-79
2022/07/27 04:01:24;;;;;;;5.60;4.87;;;32.20;91.80;;;;;;1865913;74;21144;-80
2022/07/27 04:03:55;;;;;;;7.40;4.90;;;32.20;91.90;;;;;;1862448;75;21180;-79
2022/07/27 04:06:27;;;;;;;6.28;4.20;;;32.40;92.60;;;;;;1852132;75;21181;-80
2022/07/27 04:09:16;;;;;;;6.15;4.10;;;32.40;91.70;;;;;;1774192;79;21234;-81
2022/07/27 04:11:49;;;;;;;7.20;4.70;;;32.50;91.90;;;;;;1774282;79;21234;-80
2022/07/27 04:14:20;;;;;;;6.97;4.28;;;32.50;91.50;;;;;;1783796;79;21189;-77
2022/07/27 04:16:51;;;;;;;6.37;4.65;;;32.60;91.60;;;;;;1728361;80;21178;-79
2022/07/27 04:19:23;;;;;;;6.05;4.62;;;32.70;91.70;;;;;;1789538;79;21375;-79
2022/07/27 04:21:54;;;;;;;6.03;4.40;;;32.70;91.70;;;;;;1784619;79;21199;-79
2022/07/27 04:24:39;;;;;;;10.38;5.10;;;32.80;91.50;;;;;;1777912;79;21748;-80
2022/07/27 04:27:12;;;;;;;9.15;7.42;;;32.90;92.30;;;;;;1776256;79;21322;-81
2022/07/27 04:29:45;;;;;;;6.33;5.00;;;33.00;92.00;;;;;;1774064;79;21227;-81
2022/07/27 04:32:16;;;;;;;7.67;5.22;;;33.10;92.20;;;;;;1777304;79;21250;-81
2022/07/27 04:34:48;;;;;;;7.17;5.22;;;33.10;91.70;;;;;;1766316;78;21706;-81
2022/07/27 04:37:22;;;;;;;9.73;5.15;;;33.10;91.50;;;;;;1774539;78;21287;-81
2022/07/27 04:39:55;;;;;;;9.88;5.58;;;33.10;91.20;;;;;;1807618;75;21213;-81
2022/07/27 04:42:28;;;;;;;6.37;5.10;;;33.10;91.40;;;;;;1896840;73;21247;-79
2022/07/27 04:44:58;;;;;;;7.90;5.60;;;33.20;92.90;;;;;;1902331;73;21147;-80
2022/07/27 04:47:29;;;;;;;6.87;4.60;;;33.20;91.30;;;;;;1900553;73;21191;-79
2022/07/27 04:50:02;;;;;;;7.25;5.10;;;33.20;91.50;;;;;;1881472;74;21340;-80
2022/07/27 04:52:36;;;;;;;7.30;4.55;;;33.30;92.40;;;;;;1836993;76;21591;-80
2022/07/27 04:55:08;;;;;;;6.53;4.78;;;33.30;91.10;;;;;;1834655;76;21575;-83
2022/07/27 04:57:40;;;;;;;7.00;4.33;;;33.20;91.10;;;;;;1884729;73;21094;-80
2022/07/27 05:00:12;;;;;;;7.45;4.30;;;33.30;90.80;;;;;;1918807;73;21195;-81
2022/07/27 05:02:43;;;;;;;5.95;4.30;;;33.30;90.80;;;;;;1909653;73;21099;-79
2022/07/27 05:05:13;;;;;;;6.17;5.00;;;33.40;90.60;;;;;;1910476;73;21148;-81
2022/07/27 05:07:44;;;;;;;5.33;4.47;;;33.40;90.90;;;;;;1900752;73;21517;-77
2022/07/27 05:10:16;;;;;;;6.37;4.67;;;33.50;90.40;;;;;;1888579;73;21120;-72
2022/07/27 05:12:49;;;;;;;5.20;4.30;;;33.60;90.30;;;;;;1893650;73;21269;-71
2022/07/27 05:15:21;;;;;;;7.37;4.95;;;33.60;91.00;;;;;;1895331;74;21171;-72
2022/07/27 05:17:54;;;;;;;8.28;4.50;;;33.70;90.20;;;;;;1896904;73;21242;-75
2022/07/27 05:20:24;;;;;;;6.33;4.05;;;33.80;88.90;;;;;;1883738;73;21089;-73
2022/07/27 05:22:55;;;;;;;5.08;3.75;;;33.90;87.20;;;;;;1892804;73;21117;-71
2022/07/27 05:25:26;;;;;;;5.65;3.90;;;33.90;85.50;;;;;;1907462;73;22016;-72
2022/07/27 05:27:57;;;;;;;4.30;3.70;;;33.90;86.00;;;;;;1907833;73;21303;-74
2022/07/27 05:30:28;;;;;;;6.58;4.10;;;33.90;87.80;;;;;;1892767;74;21209;-73
2022/07/27 05:32:59;;;;;;;7.20;4.03;;;33.80;86.80;;;;;;1907457;73;21768;-73
2022/07/27 05:35:33;;;;;;;4.90;3.58;;;33.80;87.20;;;;;;1889630;74;21150;-74
2022/07/27 05:38:05;;;;;;;5.55;3.60;;;33.70;87.40;;;;;;1889953;73;21211;-74
2022/07/27 05:40:37;;;;;;;6.90;4.12;;;33.60;87.10;;;;;;1903007;73;21162;-71
2022/07/27 05:43:08;;;;;;;7.95;3.90;;;33.60;87.10;;;;;;1906450;73;21134;-74
2022/07/27 05:45:39;;;;;;;5.55;3.85;;;33.60;88.50;;;;;;1882933;74;21606;-74
2022/07/27 05:48:13;;;;;;;5.72;3.67;;;33.60;88.60;;;;;;1882325;74;21163;-71
2022/07/27 05:50:44;;;;;;;6.70;4.55;;;33.60;88.30;;;;;;1894125;73;21145;-72
2022/07/27 05:53:15;;;;;;;6.45;4.30;;;33.70;88.90;;;;;;1899103;73;21140;-73
2022/07/27 05:55:46;;;;;;;8.78;4.65;;;33.80;88.50;;;;;;1877478;74;21173;-73
2022/07/27 05:58:19;;;;;;;5.28;4.00;;;33.80;88.50;;;;;;1883394;73;21165;-73
2022/07/27 06:00:55;;;;;;;5.53;3.87;;;33.90;88.80;;;;;;1887615;73;21190;-73
2022/07/27 06:03:29;;;;;;;6.15;4.12;;;33.90;88.40;;;;;;1857761;75;21151;-75
2022/07/27 06:08:38;;;;;;;6.87;4.40;;;34.00;90.40;;;;;;1905714;73;21155;-73
2022/07/27 06:11:09;;;;;;;7.30;4.55;;;34.00;90.10;;;;;;1907792;74;21593;-73
2022/07/27 06:13:44;;;;;;;7.75;4.37;;;34.00;90.30;;;;;;1883793;74;21180;-75
2022/07/27 06:16:20;;;;;;;5.90;4.12;;;34.00;90.10;;;;;;1913515;73;21531;-73
2022/07/27 06:18:52;;;;;;;7.40;4.15;;;33.90;90.00;;;;;;1910350;73;21141;-72
2022/07/27 06:21:28;;;;;;;8.60;3.80;;;33.90;89.30;;;;;;1900881;73;21199;-72
2022/07/27 06:24:00;;;;;;;6.45;4.25;;;34.00;88.80;;;;;;1907118;73;21250;-75
2022/07/27 06:26:48;;;;;;;6.60;3.95;;;33.90;89.50;;;;;;1911546;73;21195;-72
2022/07/27 06:29:41;;;;;;;;;;;;;;;;;;;;;
2022/07/27 06:32:23;;;;;;;8.47;4.07;;;33.70;90.10;;;;;;1873626;74;21174;-75
2022/07/27 06:35:09;;;;;;;4.83;3.72;;;33.70;90.40;;;;;;1883885;73;21957;-73
2022/07/27 06:37:51;;;;;;;5.20;4.05;;;33.60;90.10;;;;;;1912638;73;21112;-72
2022/07/27 06:40:19;;;;;;;5.40;4.22;;;33.50;89.50;;;;;;1886904;73;21678;-72
2022/07/27 06:42:50;;;;;;;6.95;4.05;;;33.50;90.30;;;;;;1877235;74;21115;-71
2022/07/27 06:45:27;;;;;;;6.03;3.92;;;33.60;90.40;;;;;;1909009;73;21157;-76
2022/07/27 06:48:28;;;;;;;5.85;3.80;;;33.70;89.80;;;;;;1906209;73;21711;-74
2022/07/27 06:51:03;;;;;;;6.58;4.10;;;33.70;89.30;;;;;;1731780;81;21641;-75
2022/07/27 06:53:54;;;;;;;6.17;4.03;;;33.70;90.20;;;;;;1703929;83;21247;-73
2022/07/27 06:56:25;;;;;;;5.80;4.08;;;33.70;89.30;;;;;;1719241;80;21299;-75
2022/07/27 06:58:52;;;;;;;10.75;3.83;;;33.70;90.10;;;;;;1728270;81;21179;-72
2022/07/27 07:01:23;;;;;;;5.08;3.72;;;33.70;89.30;;;;;;1698874;83;21279;-72
2022/07/27 07:03:59;;;;;;;4.83;3.83;;;33.70;88.90;;;;;;1729642;81;21204;-73
2022/07/27 07:06:29;;;;;;;6.75;3.80;;;33.60;88.80;;;;;;1653265;84;21295;-73
2022/07/27 07:09:01;;;;;;;6.40;3.92;;;33.60;88.80;;;;;;1731741;81;21190;-73
2022/07/27 07:11:32;;;;;;;4.50;3.42;;;33.60;88.60;;;;;;1725514;80;21357;-72
2022/07/27 07:14:03;;;;;;;5.87;3.85;;;33.60;88.30;;;;;;1725965;81;21300;-72
2022/07/27 07:16:38;;;;;;;4.78;3.30;;;33.50;88.10;;;;;;1730131;81;21233;-72
2022/07/27 07:19:16;;;;;;;5.00;3.90;;;33.50;89.10;;;;;;1722165;81;21239;-72
2022/07/27 07:21:47;;;;;;;6.10;3.30;;;33.40;89.20;;;;;;1704353;82;21221;-71
2022/07/27 07:24:21;;;;;;;4.37;3.45;;;33.40;89.10;;;;;;1732222;81;21247;-73
2022/07/27 07:26:51;;;;;;;5.50;3.70;;;33.30;89.10;;;;;;1700636;82;21339;-71
2022/07/27 07:29:23;;;;;;;5.55;4.00;;;33.30;89.50;;;;;;1870744;74;21571;-72
2022/07/27 07:31:53;;;;;;;5.45;3.67;;;33.30;89.30;;;;;;1875419;74;21127;-71
2022/07/27 07:34:25;;;;;;;4.55;4.03;;;33.20;90.00;;;;;;1896285;73;21120;-73
2022/07/27 07:36:59;;;;;;;4.75;3.67;;;33.10;90.30;;;;;;1899193;73;21143;-72
2022/07/27 07:39:30;;;;;;;5.33;3.60;;;33.10;88.70;;;;;;1908767;73;21152;-71
2022/07/27 07:42:01;;;;;;;5.12;3.50;;;33.00;88.40;;;;;;1896293;73;21171;-72
2022/07/27 07:44:32;;;;;;;6.05;3.50;;;33.00;88.60;;;;;;1908814;73;21076;-72
2022/07/27 07:47:04;;;;;;;4.40;3.15;;;33.00;88.90;;;;;;1889847;74;21221;-72
2022/07/27 07:49:35;;;;;;;4.65;3.37;;;33.00;89.50;;;;;;1893489;73;21173;-71
2022/07/27 07:52:08;;;;;;;4.85;3.30;;;33.10;89.80;;;;;;1893871;74;21036;-73
2022/07/27 07:54:41;;;;;;;5.40;3.77;;;33.10;87.80;;;;;;1889067;73;21226;-71
2022/07/27 07:57:12;;;;;;;4.50;3.92;;;33.20;89.20;;;;;;1900637;73;21100;-72
2022/07/27 07:59:43;;;;;;;5.37;3.30;;;33.30;88.60;;;;;;1876068;73;21229;-71
2022/07/27 08:02:13;;;;;;;7.17;3.52;;;33.30;89.80;;;;;;1889013;74;21162;-74
2022/07/27 08:04:44;;;;;;;3.98;3.25;;;33.40;89.00;;;;;;1892827;73;21154;-72
2022/07/27 08:07:15;;;;;;;4.80;3.58;;;33.40;87.70;;;;;;1887759;73;21664;-71
2022/07/27 08:09:46;;;;;;;6.05;3.47;;;33.40;86.30;;;;;;1917913;73;21139;-71
2022/07/27 08:12:28;;;;;;;5.40;2.95;;;33.50;86.60;;;;;;1921693;73;21122;-72
2022/07/27 08:14:56;;;;;;;5.28;3.20;;;33.50;87.10;;;;;;1894769;74;21112;-72
2022/07/27 08:17:27;;;;;;;5.45;3.65;;;33.50;87.40;;;;;;1902238;74;21364;-71
2022/07/27 08:19:58;;;;;;;6.92;3.30;;;33.60;88.50;;;;;;1889683;73;21094;-73
2022/07/27 08:22:29;;;;;;;4.42;3.50;;;33.70;87.40;;;;;;1882328;73;21185;-71
2022/07/27 08:25:00;;;;;;;4.08;3.37;;;33.70;88.20;;;;;;1902434;73;21136;-72
2022/07/27 08:27:31;;;;;;;4.58;3.75;;;33.80;87.10;;;;;;1886912;74;21136;-72
2022/07/27 08:30:05;;;;;;;4.87;3.35;;;33.80;87.40;;;;;;1906957;74;21175;-74
2022/07/27 08:32:39;;;;;;;4.97;3.35;;;33.80;86.70;;;;;;1894020;73;21613;-73
2022/07/27 08:35:10;;;;;;;4.65;3.10;;;33.80;85.80;;;;;;1895900;74;21153;-72
2022/07/27 08:37:41;;;;;;;6.35;3.22;;;33.80;85.00;;;;;;1899323;74;21126;-73
2022/07/27 08:40:13;;;;;;;4.47;3.27;;;33.70;85.70;;;;;;1885267;74;21123;-70
2022/07/27 08:42:45;;;;;;;4.25;3.25;;;33.60;85.30;;;;;;1878441;74;21209;-72
2022/07/27 08:45:19;;;;;;;4.83;2.77;;;33.50;85.40;;;;;;1893877;73;21196;-71
2022/07/27 08:47:50;;;;;;;4.72;3.00;;;33.50;84.60;;;;;;1867965;75;21197;-71
2022/07/27 08:50:23;;;;;;;4.60;2.80;;;33.40;84.20;;;;;;1866015;74;21131;-70
2022/07/27 08:52:56;;;;;;;4.97;3.33;;;33.30;84.20;;;;;;1855944;75;22085;-71
2022/07/27 08:55:28;;;;;;;7.97;4.30;;;33.30;85.30;;;;;;1898225;73;21607;-70
2022/07/27 08:57:59;;;;;;;5.90;3.72;;;33.20;85.00;;;;;;1904071;73;21125;-70
2022/07/27 09:00:34;;;;;;;6.50;4.17;;;33.20;84.30;;;;;;1906342;74;21636;-70
2022/07/27 09:03:05;;;;;;;5.55;3.37;;;33.20;83.90;;;;;;1890053;74;21659;-70
2022/07/27 09:05:38;;;;;;;5.15;3.33;;;33.20;83.50;;;;;;1901248;74;21088;-70
2022/07/27 09:08:10;;;;;;;4.03;3.15;;;33.20;83.90;;;;;;1893451;74;21111;-70
2022/07/27 09:10:42;;;;;;;5.70;3.22;;;33.20;83.50;;;;;;1897022;74;21163;-70
2022/07/27 09:13:18;;;;;;;4.40;3.25;;;33.20;83.60;;;;;;1899386;73;21615;-70
2022/07/27 09:18:29;;;;;;;5.03;2.90;;;33.30;83.50;;;;;;1872564;74;21204;-71
2022/07/27 09:21:03;;;;;;;5.10;3.30;;;33.30;84.70;;;;;;1899622;74;21139;-70
2022/07/27 09:23:35;;;;;;;4.53;2.80;;;33.30;83.40;;;;;;1897646;74;21538;-70
2022/07/27 09:26:26;;;;;;;5.00;3.10;;;33.30;82.20;;;;;;1900852;74;21943;-70
2022/07/27 09:29:01;;;;;;;5.00;3.25;;;33.30;82.70;;;;;;1890159;74;21166;-71
2022/07/27 09:31:38;;;;;;;3.72;2.87;;;33.30;83.20;;;;;;1903140;74;21638;-70
2022/07/27 09:34:10;;;;;;;4.60;3.08;;;33.20;83.30;;;;;;1859548;76;21128;-72
2022/07/27 09:36:45;;;;;;;6.62;3.58;;;33.20;83.50;;;;;;1875504;75;21084;-70
2022/07/27 09:39:18;;;;;;;4.60;3.20;;;33.20;84.20;;;;;;1853298;75;21677;-70
2022/07/27 09:41:51;;;;;;;4.03;3.20;;;33.20;83.70;;;;;;1860481;75;21154;-71
2022/07/27 09:44:26;;;;;;;7.67;4.28;;;33.20;83.70;;;;;;1861219;76;21668;-71
2022/07/27 09:46:58;;;;;;;4.37;3.42;;;33.10;83.80;;;;;;1846381;75;21788;-71
2022/07/27 09:49:32;;;;;;;6.10;3.52;;;33.10;84.10;;;;;;1863802;75;21613;-71
2022/07/27 09:52:04;;;;;;;4.87;3.42;;;33.10;84.50;;;;;;1900107;74;21167;-71
2022/07/27 09:54:38;;;;;;;4.53;3.72;;;33.00;84.50;;;;;;1897145;74;21200;-72
2022/07/27 09:57:09;;;;;;;4.80;3.60;;;33.00;85.60;;;;;;1910299;73;21202;-71
2022/07/27 09:59:40;;;;;;;4.95;3.52;;;32.90;85.70;;;;;;1907543;73;21152;-71
2022/07/27 10:02:13;;;;;;;6.53;3.25;;;32.90;86.40;;;;;;1878809;74;21166;-71
2022/07/27 10:04:46;;;;;;;3.98;3.15;;;32.90;86.90;;;;;;1893081;74;21258;-71
2022/07/27 10:07:18;;;;;;;5.37;3.92;;;32.90;86.90;;;;;;1894399;74;21175;-70
2022/07/27 10:09:50;;;;;;;4.75;3.55;;;32.80;86.80;;;;;;1911785;73;21692;-71
2022/07/27 10:12:27;;;;;;;5.75;3.87;;;32.80;87.10;;;;;;1891381;74;21653;-69
2022/07/27 10:14:58;;;;;;;8.98;3.95;;;32.80;87.90;;;;;;1887809;74;21127;-71
2022/07/27 10:17:30;;;;;;;5.97;4.37;;;32.80;87.70;;;;;;1912551;74;21080;-71
2022/07/27 10:20:07;;;;;;;4.90;4.12;;;32.80;87.90;;;;;;1893026;74;21236;-70
2022/07/27 10:22:36;;;;;;;5.45;4.30;;;32.80;88.00;;;;;;1899158;74;21559;-71
2022/07/27 10:25:07;;;;;;;6.22;4.40;;;32.70;88.10;;;;;;1887472;74;21620;-71
2022/07/27 10:27:38;;;;;;;5.67;5.05;;;32.70;88.50;;;;;;1899458;74;21219;-72
2022/07/27 10:30:10;;;;;;;8.10;5.95;;;32.70;89.00;;;;;;1890286;74;21211;-72
2022/07/27 10:32:43;;;;;;;10.03;6.25;;;32.60;89.10;;;;;;1910578;74;21260;-72
2022/07/27 10:35:17;;;;;;;7.47;5.92;;;32.60;89.50;;;;;;1909809;73;21260;-73
2022/07/27 10:37:50;;;;;;;8.95;5.90;;;32.60;89.70;;;;;;1890026;74;21237;-71
2022/07/27 10:42:56;;;;;;;9.15;5.67;;;32.60;90.00;;;;;;1886444;74;21244;-73
2022/07/27 10:45:29;;;;;;;11.08;6.37;;;32.60;90.10;;;;;;1886927;74;21217;-72
2022/07/27 10:48:02;;;;;;;9.38;5.78;;;32.60;90.20;;;;;;1879917;73;21154;-69
2022/07/27 10:50:33;;;;;;;7.85;5.55;;;32.50;90.30;;;;;;1865463;74;21725;-70
2022/07/27 10:53:06;;;;;;;8.53;6.42;;;32.50;90.50;;;;;;1864363;74;21674;-70
2022/07/27 10:55:41;;;;;;;7.03;5.70;;;32.50;90.60;;;;;;1817869;77;21684;-71
2022/07/27 10:58:12;;;;;;;7.83;6.08;;;32.50;90.60;;;;;;1884326;74;21123;-70
2022/07/27 11:00:45;;;;;;;7.58;5.87;;;32.40;90.60;;;;;;1880006;75;21198;-70
2022/07/27 11:03:20;;;;;;;8.08;5.33;;;32.40;90.60;;;;;;1887858;74;21183;-71
2022/07/27 11:05:54;;;;;;;7.47;5.35;;;32.40;90.50;;;;;;1904800;73;21136;-71
2022/07/27 11:08:28;;;;;;;6.40;5.00;;;32.30;90.50;;;;;;1866714;74;21212;-70
2022/07/27 11:11:01;;;;;;;6.08;5.47;;;32.30;90.50;;;;;;1889614;74;21151;-70
2022/07/27 11:13:33;;;;;;;6.42;5.08;;;32.20;90.50;;;;;;1860704;76;21607;-71
2022/07/27 11:16:08;;;;;;;6.62;4.92;;;32.20;90.40;;;;;;1878490;74;21204;-71
2022/07/27 11:18:42;;;;;;;8.05;5.05;;;32.20;90.30;;;;;;1872165;75;21073;-70
2022/07/27 11:21:15;;;;;;;8.50;5.47;;;32.10;90.20;;;;;;1872017;75;21485;-70
2022/07/27 11:23:50;;;;;;;7.92;6.20;;;32.10;90.30;;;;;;1827474;76;21256;-70
2022/07/27 11:26:22;;;;;;;6.67;4.97;;;32.10;90.50;;;;;;1878369;74;21230;-71
2022/07/27 11:28:54;;;;;;;7.80;5.10;;;32.10;90.60;;;;;;1874716;74;21576;-70
2022/07/27 11:31:25;;;;;;;6.22;4.50;;;32.10;90.60;;;;;;1886354;74;21676;-70
2022/07/27 11:33:58;;;;;;;8.40;4.87;;;32.10;90.70;;;;;;1887519;73;21162;-69
2022/07/27 11:36:31;;;;;;;6.50;4.83;;;32.00;90.70;;;;;;1879327;74;21087;-70
2022/07/27 11:39:04;;;;;;;7.05;5.33;;;32.00;90.80;;;;;;1843364;74;21131;-70
2022/07/27 11:41:36;;;;;;;8.35;5.37;;;32.00;90.80;;;;;;1886773;74;21266;-70
2022/07/27 11:44:10;;;;;;;8.25;5.92;;;32.00;90.80;;;;;;1873785;75;21156;-70
2022/07/27 11:46:44;;;;;;;6.60;5.15;;;32.00;90.90;;;;;;1850105;75;21200;-70
2022/07/27 11:49:20;;;;;;;10.48;5.05;;;32.00;90.90;;;;;;1865555;75;21686;-70
2022/07/27 11:51:55;;;;;;;7.70;5.58;;;31.90;90.90;;;;;;1860372;76;21293;-70
2022/07/27 11:54:30;;;;;;;7.62;5.22;;;31.90;91.00;;;;;;1869702;75;21616;-70
2022/07/27 11:57:03;;;;;;;7.03;5.17;;;31.90;90.90;;;;;;1857291;76;21933;-70
2022/07/27 11:59:36;;;;;;;8.55;5.60;;;31.90;90.90;;;;;;1884353;75;21206;-70
2022/07/27 12:02:12;;;;;;;7.78;4.72;;;31.90;91.00;;;;;;1860387;75;21520;-70
2022/07/27 12:04:44;;;;;;;7.12;5.20;;;31.90;91.00;;;;;;1849170;75;21750;-69
2022/07/27 12:07:16;;;;;;;7.00;5.65;;;31.90;91.00;;;;;;1838496;76;21168;-71
2022/07/27 12:09:50;;;;;;;6.30;4.87;;;31.90;91.10;;;;;;1894294;75;21240;-70
2022/07/27 12:12:23;;;;;;;9.60;5.78;;;31.80;91.20;;;;;;1870120;75;21206;-70
2022/07/27 12:14:55;;;;;;;7.00;5.83;;;31.80;91.30;;;;;;1882462;75;21970;-70
2022/07/27 12:17:27;;;;;;;8.18;6.12;;;31.80;91.30;;;;;;1893355;74;21180;-70
2022/07/27 12:20:01;;;;;;;7.85;5.50;;;31.80;91.30;;;;;;1890266;74;21146;-70
2022/07/27 12:22:33;;;;;;;10.03;6.05;;;31.80;91.40;;;;;;1894036;74;21125;-69
2022/07/27 12:25:06;;;;;;;7.45;5.30;;;31.80;91.30;;;;;;1870977;74;21100;-69
2022/07/27 12:27:39;;;;;;;8.88;5.45;;;31.80;91.30;;;;;;1885813;75;21138;-69
2022/07/27 12:30:12;;;;;;;8.50;5.35;;;31.70;91.30;;;;;;1898366;73;21080;-70
2022/07/27 12:32:44;;;;;;;8.43;5.50;;;31.70;91.30;;;;;;1905142;74;21185;-69
2022/07/27 12:35:18;;;;;;;9.33;5.90;;;31.70;91.30;;;;;;1905275;74;21123;-70
2022/07/27 12:37:50;;;;;;;8.70;6.40;;;31.70;91.20;;;;;;1882642;73;21730;-71
2022/07/27 12:40:21;;;;;;;8.80;5.58;;;31.70;91.20;;;;;;1890672;73;21739;-69
2022/07/27 12:42:55;;;;;;;9.43;6.33;;;31.70;91.20;;;;;;1896606;74;21677;-70
2022/07/27 12:45:28;;;;;;;7.30;5.83;;;31.70;91.20;;;;;;1902528;73;22201;-70
2022/07/27 12:48:02;;;;;;;10.13;6.78;;;31.70;91.30;;;;;;1885762;73;21151;-70
2022/07/27 12:50:33;;;;;;;9.50;7.83;;;31.70;91.20;;;;;;1904675;73;21094;-71
2022/07/27 12:53:05;;;;;;;12.28;8.43;;;31.70;91.30;;;;;;1878681;73;21205;-69
2022/07/27 12:55:36;;;;;;;14.35;9.85;;;31.70;91.40;;;;;;1899052;73;21245;-70
2022/07/27 12:58:09;;;;;;;14.13;9.85;;;31.70;91.40;;;;;;1883817;74;21117;-70
2022/07/27 13:00:40;;;;;;;20.15;11.95;;;31.70;91.40;;;;;;1903899;74;22473;-71
2022/07/27 13:03:11;;;;;;;15.30;11.35;;;31.70;91.30;;;;;;1823044;77;21176;-69
2022/07/27 13:05:42;;;;;;;16.77;12.65;;;31.70;91.30;;;;;;1838900;76;21147;-69
2022/07/27 13:08:13;;;;;;;20.43;13.35;;;31.70;91.30;;;;;;1863779;75;21149;-71
2022/07/27 13:10:46;;;;;;;18.12;12.50;;;31.70;91.30;;;;;;1824398;77;21182;-70
2022/07/27 13:13:23;;;;;;;19.17;12.05;;;31.60;91.10;;;;;;1897529;74;21189;-71
2022/07/27 13:15:50;;;;;;;19.77;12.33;;;31.60;91.20;;;;;;1878835;73;21635;-71
2022/07/27 13:18:21;;;;;;;15.28;10.50;;;31.60;91.00;;;;;;1876255;74;21563;-72
2022/07/27 13:20:53;;;;;;;17.30;11.38;;;31.60;91.20;;;;;;1871107;74;21151;-72
2022/07/27 13:23:24;;;;;;;14.85;10.85;;;31.60;91.30;;;;;;1875918;74;21103;-71
2022/07/27 13:25:55;;;;;;;12.50;9.00;;;31.60;91.30;;;;;;1875086;74;21634;-71